Aviation Digital Data Service (ADDS)

Output produced by METARs form (2337 UTC 26 May 2018)
found at http://aviationweather.gov/adds/metars/
 
KILG 261916Z 2619/2718 23007KT P6SM VCTS SCT050CB 
     FM262100 23007KT P6SM VCTS BKN050CB 
     FM262300 22006KT P6SM BKN100 
     FM270000 22006KT P6SM VCTS BKN050CB 
     FM270400 20004KT P6SM BKN050 
     PROB30 2704/2706 5SM -TSRA BKN050CB 
     FM270900 16004KT P6SM OVC035 
     PROB30 2709/2712 3SM -SHRA 
     FM271200 17004KT P6SM OVC008 
     FM271500 06005KT P6SM OVC011